Time;durP1;ratioP1;P1;durP2;ratioP2;P2;SDS_P1;SDS_P2;PMS_P1;PMS_P2;Temp;Humidity;BMP_temperature;BMP_pressure;BME280_temperature;BME280_humidity;BME280_pressure;Samples;Min_cycle;Max_cycle;Signal;HPM_P1;HPM_P2
2022/10/01 00:01:03;;;;;;;3.33;1.13;;;20.00;56.30;;;;;;5038639;28;20029;-64
2022/10/01 00:03:30;;;;;;;1.83;1.30;;;19.90;56.30;;;;;;5037331;28;20021;-64
2022/10/01 00:06:04;;;;;;;2.58;1.20;;;19.90;56.20;;;;;;5035694;28;20047;-64
2022/10/01 00:08:32;;;;;;;2.05;1.30;;;19.90;56.30;;;;;;5038406;28;20480;-64
2022/10/01 00:11:01;;;;;;;2.00;1.17;;;19.90;56.30;;;;;;5051176;28;20029;-64
2022/10/01 00:13:29;;;;;;;2.05;1.10;;;19.90;56.30;;;;;;5033106;28;20109;-64
2022/10/01 00:15:55;;;;;;;2.22;1.10;;;19.90;56.30;;;;;;5055760;28;20535;-64
2022/10/01 00:18:20;;;;;;;1.80;1.10;;;19.90;56.30;;;;;;5037838;28;20057;-64
2022/10/01 00:20:46;;;;;;;2.17;1.20;;;19.90;56.30;;;;;;5038317;28;20029;-64
2022/10/01 00:23:13;;;;;;;1.70;1.00;;;19.90;56.30;;;;;;5037436;28;20036;-64
2022/10/01 00:25:39;;;;;;;1.42;1.08;;;19.90;56.30;;;;;;5038393;28;20033;-64
2022/10/01 00:28:06;;;;;;;1.85;1.05;;;19.90;56.30;;;;;;5033701;28;20029;-64
2022/10/01 00:30:32;;;;;;;1.70;1.10;;;19.90;56.30;;;;;;5033916;28;20045;-64
2022/10/01 00:32:58;;;;;;;1.30;0.98;;;19.90;56.30;;;;;;5038060;28;20346;-64
2022/10/01 00:35:23;;;;;;;1.60;1.20;;;19.90;56.30;;;;;;5032510;28;20098;-64
2022/10/01 00:37:51;;;;;;;1.38;1.02;;;19.90;56.30;;;;;;5031465;28;20412;-64
2022/10/01 00:40:18;;;;;;;1.77;1.20;;;19.80;56.30;;;;;;5038225;28;20500;-64
2022/10/01 00:42:44;;;;;;;1.48;1.00;;;19.80;56.30;;;;;;5037094;28;20021;-64
2022/10/01 00:45:11;;;;;;;1.65;1.02;;;19.80;56.30;;;;;;5038379;28;20491;-64
2022/10/01 00:47:56;;;;;;;1.50;1.02;;;19.80;56.30;;;;;;5034817;28;20036;-64
2022/10/01 00:50:31;;;;;;;1.95;1.20;;;19.80;56.30;;;;;;5037670;28;20029;-64
2022/10/01 00:53:04;;;;;;;1.95;0.95;;;19.80;56.30;;;;;;5036271;28;20029;-64
2022/10/01 00:55:39;;;;;;;1.70;1.00;;;19.80;56.30;;;;;;5031986;28;20030;-64
2022/10/01 00:58:07;;;;;;;1.73;1.15;;;19.80;56.30;;;;;;5039304;28;20052;-64
2022/10/01 01:00:35;;;;;;;1.63;1.00;;;19.80;56.30;;;;;;5039468;28;20022;-64
2022/10/01 01:03:01;;;;;;;1.60;1.00;;;19.80;56.30;;;;;;5040589;28;20090;-64
2022/10/01 01:05:27;;;;;;;1.30;0.88;;;19.80;56.30;;;;;;5036941;28;20033;-64
2022/10/01 01:07:53;;;;;;;1.40;0.90;;;19.80;56.30;;;;;;5039349;28;20090;-64
2022/10/01 01:10:40;;;;;;;1.52;1.00;;;19.80;56.30;;;;;;5042231;28;20021;-64
2022/10/01 01:14:04;;;;;;;1.70;1.00;;;19.70;56.30;;;;;;5038735;28;20025;-64
2022/10/01 01:16:37;;;;;;;1.48;0.93;;;19.70;56.30;;;;;;5004430;28;20093;-64
2022/10/01 01:19:19;;;;;;;1.70;1.17;;;19.70;56.30;;;;;;5034841;28;20041;-64
2022/10/01 01:21:50;;;;;;;1.77;1.10;;;19.70;56.30;;;;;;5042765;28;20017;-64
2022/10/01 01:24:25;;;;;;;1.58;1.10;;;19.70;56.30;;;;;;5041551;28;20422;-64
2022/10/01 01:27:15;;;;;;;1.48;1.02;;;19.70;56.30;;;;;;5041134;28;20519;-64
2022/10/01 01:29:49;;;;;;;;;;;19.70;56.30;;;;;;5037159;28;20029;-64
2022/10/01 01:32:22;;;;;;;1.60;1.08;;;19.70;56.30;;;;;;5038953;28;19962;-64
2022/10/01 01:34:51;;;;;;;1.40;1.00;;;19.70;56.30;;;;;;5039711;28;20033;-64
2022/10/01 01:37:21;;;;;;;1.15;0.90;;;19.70;56.30;;;;;;5039701;28;20457;-64
2022/10/01 01:39:51;;;;;;;1.92;1.10;;;19.70;56.30;;;;;;5036171;28;20033;-64
2022/10/01 01:42:22;;;;;;;1.27;0.90;;;19.70;56.30;;;;;;5032980;28;20079;-64
2022/10/01 01:44:50;;;;;;;1.38;1.00;;;19.70;56.40;;;;;;5041138;28;20152;-64
2022/10/01 01:47:21;;;;;;;1.40;1.10;;;19.70;56.40;;;;;;5044020;28;20075;-64
2022/10/01 01:49:49;;;;;;;1.73;1.00;;;19.70;56.40;;;;;;5039170;28;20174;-64
2022/10/01 01:52:16;;;;;;;1.15;0.93;;;19.70;56.70;;;;;;5042280;28;20029;-64
2022/10/01 01:54:48;;;;;;;1.50;1.00;;;19.70;56.40;;;;;;5040360;28;20037;-64
2022/10/01 01:57:15;;;;;;;1.50;1.10;;;19.70;56.40;;;;;;5038968;28;20036;-64
2022/10/01 01:59:41;;;;;;;1.83;1.35;;;19.70;56.40;;;;;;5041117;28;20454;-64
2022/10/01 02:02:13;;;;;;;1.10;0.80;;;19.60;56.40;;;;;;5042761;28;20094;-64
2022/10/01 02:05:09;;;;;;;1.08;0.90;;;19.60;56.40;;;;;;5040962;28;20060;-64
2022/10/01 02:07:41;;;;;;;1.15;0.90;;;19.60;56.40;;;;;;5032471;28;20071;-64
2022/10/01 02:10:22;;;;;;;1.75;1.00;;;19.60;56.40;;;;;;5038691;28;20481;-64
2022/10/01 02:13:23;;;;;;;1.63;0.93;;;19.60;56.40;;;;;;5039725;28;20124;-64
2022/10/01 02:16:00;;;;;;;1.75;1.00;;;19.60;56.40;;;;;;5037916;28;20025;-64
2022/10/01 02:18:56;;;;;;;1.50;1.00;;;19.60;56.40;;;;;;5033280;28;20508;-64
2022/10/01 02:21:39;;;;;;;1.38;0.90;;;19.60;56.40;;;;;;5035877;28;20026;-64
2022/10/01 02:24:26;;;;;;;1.70;1.00;;;19.60;56.40;;;;;;5031743;28;20032;-64
2022/10/01 02:26:54;;;;;;;1.50;1.00;;;19.60;56.40;;;;;;5034365;28;20026;-64
2022/10/01 02:29:22;;;;;;;1.75;1.00;;;19.60;56.40;;;;;;5041151;28;20564;-64
2022/10/01 02:31:52;;;;;;;1.00;0.90;;;19.60;56.40;;;;;;5036761;28;20034;-64
2022/10/01 02:34:19;;;;;;;;;;;19.60;56.40;;;;;;5042515;28;20036;-64
2022/10/01 02:36:47;;;;;;;1.50;1.05;;;19.60;56.40;;;;;;5041846;28;20736;-64
2022/10/01 02:39:15;;;;;;;1.67;1.00;;;19.60;56.40;;;;;;5040871;28;20030;-64
2022/10/01 02:41:44;;;;;;;1.88;1.10;;;19.60;56.40;;;;;;5057670;28;20057;-64
2022/10/01 02:44:20;;;;;;;1.55;1.00;;;19.60;56.40;;;;;;5038515;28;20072;-64
2022/10/01 02:47:06;;;;;;;1.48;1.00;;;19.60;56.40;;;;;;5041180;28;20117;-64
2022/10/01 02:49:33;;;;;;;1.25;1.00;;;19.50;56.40;;;;;;5038135;28;20056;-64
2022/10/01 02:52:14;;;;;;;1.63;1.02;;;19.60;56.40;;;;;;5038165;28;20041;-64
2022/10/01 02:54:51;;;;;;;1.23;0.90;;;19.50;56.40;;;;;;5037172;28;20469;-63
2022/10/01 02:57:25;;;;;;;1.50;1.00;;;19.60;56.50;;;;;;5038202;28;20039;-64
2022/10/01 02:59:56;;;;;;;1.30;0.82;;;19.60;56.40;;;;;;5029959;28;20031;-64
2022/10/01 03:02:24;;;;;;;1.25;0.90;;;19.50;56.40;;;;;;5029134;28;20515;-64
2022/10/01 03:04:50;;;;;;;1.33;0.90;;;19.50;56.50;;;;;;5051677;28;20030;-64
2022/10/01 03:07:16;;;;;;;1.10;0.80;;;19.50;56.50;;;;;;5036625;28;20060;-64
2022/10/01 03:09:42;;;;;;;1.17;0.85;;;19.50;56.50;;;;;;5036210;28;20025;-64
2022/10/01 03:12:09;;;;;;;1.67;1.15;;;19.50;56.50;;;;;;5030014;28;20418;-64
2022/10/01 03:14:35;;;;;;;1.40;0.95;;;19.50;56.40;;;;;;5037057;28;20080;-64
2022/10/01 03:17:01;;;;;;;1.40;1.00;;;19.50;56.40;;;;;;5033226;28;20064;-64
2022/10/01 03:19:27;;;;;;;1.27;0.85;;;19.50;56.40;;;;;;5041625;28;20037;-64
2022/10/01 03:21:55;;;;;;;1.13;0.90;;;19.50;56.50;;;;;;5040443;28;20394;-64
2022/10/01 03:24:21;;;;;;;1.30;1.00;;;19.50;56.50;;;;;;5038948;28;20013;-64
2022/10/01 03:26:46;;;;;;;1.75;1.10;;;19.50;56.50;;;;;;5038780;28;20525;-64
2022/10/01 03:29:12;;;;;;;1.40;0.93;;;19.50;56.50;;;;;;5038425;28;21047;-64
2022/10/01 03:31:37;;;;;;;1.63;1.13;;;19.50;56.50;;;;;;5038921;28;20049;-64
2022/10/01 03:34:03;;;;;;;1.50;0.90;;;19.50;56.50;;;;;;5035721;28;20499;-64
2022/10/01 03:36:29;;;;;;;1.15;0.90;;;19.50;56.50;;;;;;5032294;28;20021;-64
2022/10/01 03:38:55;;;;;;;1.52;0.98;;;19.50;56.50;;;;;;5033517;28;20032;-64
2022/10/01 03:41:21;;;;;;;1.38;1.00;;;19.50;56.50;;;;;;5040034;28;20084;-64
2022/10/01 03:43:46;;;;;;;0.70;0.70;;;19.40;56.40;;;;;;5038724;28;20961;-64
2022/10/01 03:46:13;;;;;;;1.10;0.90;;;19.50;56.50;;;;;;5035524;28;20113;-64
2022/10/01 03:48:38;;;;;;;1.20;0.90;;;19.50;56.50;;;;;;5036616;28;20026;-64
2022/10/01 03:51:04;;;;;;;1.75;1.00;;;19.40;56.50;;;;;;5035773;28;20037;-64
2022/10/01 03:53:30;;;;;;;1.38;1.00;;;19.50;56.50;;;;;;5030123;28;20026;-64
2022/10/01 03:55:57;;;;;;;1.23;0.90;;;19.50;56.50;;;;;;5038442;28;20048;-64
2022/10/01 03:58:23;;;;;;;1.35;0.95;;;19.50;56.50;;;;;;5041653;28;20036;-64
2022/10/01 04:00:50;;;;;;;1.25;0.98;;;19.50;56.50;;;;;;5038086;28;21036;-64
2022/10/01 04:03:16;;;;;;;1.13;0.82;;;19.50;56.60;;;;;;5038270;28;20064;-64
2022/10/01 04:05:43;;;;;;;1.67;1.00;;;19.50;56.60;;;;;;5040325;28;20025;-64
2022/10/01 04:08:10;;;;;;;1.35;0.98;;;19.40;56.50;;;;;;5041187;28;20025;-64
2022/10/01 04:10:36;;;;;;;1.00;0.90;;;19.40;56.50;;;;;;5036868;28;20497;-64
2022/10/01 04:13:02;;;;;;;1.10;0.90;;;19.40;56.50;;;;;;5038561;28;20144;-64
2022/10/01 04:15:27;;;;;;;1.27;0.90;;;19.40;56.50;;;;;;5036817;28;20025;-64
2022/10/01 04:17:53;;;;;;;1.38;0.90;;;19.40;56.50;;;;;;5036110;28;20049;-64
2022/10/01 04:20:19;;;;;;;0.95;0.80;;;19.40;56.50;;;;;;5035270;28;20033;-64
2022/10/01 04:22:45;;;;;;;1.10;0.90;;;19.40;56.50;;;;;;5036968;28;20022;-64
2022/10/01 04:25:12;;;;;;;1.40;0.80;;;19.40;56.60;;;;;;5037312;28;20040;-64
2022/10/01 04:27:39;;;;;;;0.98;0.80;;;19.40;56.50;;;;;;5033922;28;20033;-64
2022/10/01 04:30:06;;;;;;;1.10;0.90;;;19.40;56.50;;;;;;5028268;28;20500;-64
2022/10/01 04:32:32;;;;;;;1.02;0.80;;;19.40;56.50;;;;;;5025920;28;20037;-64
2022/10/01 04:34:58;;;;;;;1.27;1.00;;;19.40;56.60;;;;;;5039203;28;20029;-64
2022/10/01 04:37:26;;;;;;;1.23;1.00;;;19.40;56.90;;;;;;5038953;28;20029;-64
2022/10/01 04:39:52;;;;;;;1.02;0.88;;;19.40;56.60;;;;;;5038278;28;20377;-64
2022/10/01 04:42:18;;;;;;;1.10;0.90;;;19.40;56.60;;;;;;5040268;28;20025;-64
2022/10/01 04:44:43;;;;;;;0.98;0.80;;;19.40;56.60;;;;;;5037292;28;20079;-64
2022/10/01 04:47:09;;;;;;;0.73;0.70;;;19.40;56.60;;;;;;5037013;28;20099;-64
2022/10/01 04:49:35;;;;;;;1.33;0.90;;;19.40;56.60;;;;;;5038339;28;20040;-64
2022/10/01 04:52:02;;;;;;;1.00;0.75;;;19.40;56.60;;;;;;5038294;28;20025;-64
2022/10/01 04:54:28;;;;;;;0.88;0.73;;;19.40;56.70;;;;;;5039665;28;20392;-64
2022/10/01 04:56:54;;;;;;;1.10;0.88;;;19.40;56.70;;;;;;5036376;28;20041;-64
2022/10/01 04:59:20;;;;;;;0.88;0.80;;;19.40;56.70;;;;;;5037665;28;20247;-64
2022/10/01 05:01:45;;;;;;;1.10;0.80;;;19.30;56.60;;;;;;5036988;28;20029;-64
2022/10/01 05:04:11;;;;;;;1.45;0.90;;;19.40;56.70;;;;;;5033022;28;20084;-64
2022/10/01 05:06:37;;;;;;;1.00;0.77;;;19.40;56.70;;;;;;5034533;28;20469;-64
2022/10/01 05:09:03;;;;;;;1.23;0.90;;;19.30;56.60;;;;;;5036705;28;20029;-64
2022/10/01 05:11:29;;;;;;;1.35;0.90;;;19.40;56.70;;;;;;5036201;28;20056;-64
2022/10/01 05:13:55;;;;;;;1.42;0.98;;;19.30;56.70;;;;;;5036508;28;20474;-64
2022/10/01 05:16:21;;;;;;;1.17;0.90;;;19.30;56.60;;;;;;5037424;28;20055;-64
2022/10/01 05:18:46;;;;;;;0.98;0.80;;;19.30;56.70;;;;;;5041223;28;20025;-64
2022/10/01 05:21:14;;;;;;;1.10;0.80;;;19.40;57.20;;;;;;5052324;28;20018;-64
2022/10/01 05:23:40;;;;;;;1.25;0.80;;;19.30;56.70;;;;;;5053405;28;20029;-64
2022/10/01 05:26:07;;;;;;;1.45;0.90;;;19.30;56.70;;;;;;5037933;28;20025;-63
2022/10/01 05:28:34;;;;;;;0.98;0.80;;;19.40;56.70;;;;;;5036623;28;20082;-64
2022/10/01 05:31:01;;;;;;;0.95;0.80;;;19.30;56.70;;;;;;5033554;28;20112;-64
2022/10/01 05:33:27;;;;;;;1.25;0.82;;;19.30;56.70;;;;;;5032176;28;20388;-64
2022/10/01 05:35:53;;;;;;;1.33;0.90;;;19.30;56.70;;;;;;5037653;28;20369;-64
2022/10/01 05:38:19;;;;;;;1.20;0.82;;;19.40;56.70;;;;;;5038877;28;20441;-64
2022/10/01 05:40:45;;;;;;;0.88;0.75;;;19.30;56.70;;;;;;5053268;28;20114;-64
2022/10/01 05:43:11;;;;;;;0.80;0.80;;;19.40;56.70;;;;;;5034900;28;20051;-64
2022/10/01 05:45:37;;;;;;;1.40;0.90;;;19.30;56.60;;;;;;5038249;28;20045;-64
2022/10/01 05:48:05;;;;;;;0.95;0.80;;;19.40;56.70;;;;;;5035108;28;20021;-68
2022/10/01 05:50:34;;;;;;;1.33;0.82;;;19.30;56.70;;;;;;5035956;28;20033;-68
2022/10/01 05:53:00;;;;;;;0.80;0.68;;;19.30;56.70;;;;;;5035064;28;20040;-68
2022/10/01 05:55:32;;;;;;;0.98;0.80;;;19.30;56.70;;;;;;5040524;28;20485;-68
2022/10/01 05:58:03;;;;;;;1.05;0.80;;;19.30;56.60;;;;;;5043013;28;20387;-68
2022/10/01 06:00:30;;;;;;;0.80;0.70;;;19.30;56.60;;;;;;5041662;28;20128;-68
2022/10/01 06:02:57;;;;;;;1.23;0.80;;;19.30;56.70;;;;;;5041774;28;20029;-68
2022/10/01 06:05:23;;;;;;;0.73;0.70;;;19.30;56.70;;;;;;5039406;28;20523;-68
2022/10/01 06:07:50;;;;;;;1.10;0.90;;;19.30;56.70;;;;;;5037688;28;20084;-68
2022/10/01 06:10:16;;;;;;;0.90;0.80;;;19.30;56.70;;;;;;5037764;28;20482;-68
2022/10/01 06:12:42;;;;;;;0.80;0.77;;;19.30;56.70;;;;;;5036649;28;20053;-68
2022/10/01 06:15:08;;;;;;;1.52;0.88;;;19.30;56.70;;;;;;5035942;28;20527;-68
2022/10/01 06:17:34;;;;;;;1.00;0.90;;;19.30;56.70;;;;;;5039139;28;20524;-68
2022/10/01 06:20:00;;;;;;;0.80;0.73;;;19.30;56.70;;;;;;5036222;28;20029;-68
2022/10/01 06:22:26;;;;;;;1.13;0.80;;;19.30;56.70;;;;;;5042448;28;20161;-68
2022/10/01 06:24:51;;;;;;;1.20;0.80;;;19.30;56.70;;;;;;5042877;28;20366;-68
2022/10/01 06:27:17;;;;;;;1.10;0.80;;;19.30;56.70;;;;;;5040890;28;20025;-68
2022/10/01 06:29:43;;;;;;;2.25;0.95;;;19.30;56.70;;;;;;5040116;28;20366;-68
2022/10/01 06:32:12;;;;;;;1.50;0.80;;;19.30;56.70;;;;;;5038211;28;20071;-68
2022/10/01 06:34:38;;;;;;;0.85;0.70;;;19.30;56.70;;;;;;5036017;28;20508;-68
2022/10/01 06:37:04;;;;;;;1.02;0.80;;;19.30;56.70;;;;;;5042876;28;20025;-68
2022/10/01 06:39:29;;;;;;;0.90;0.70;;;19.30;56.80;;;;;;5040475;28;20038;-68
2022/10/01 06:41:55;;;;;;;1.67;0.90;;;19.30;56.80;;;;;;5055918;28;20489;-68
2022/10/01 06:44:21;;;;;;;0.95;0.80;;;19.30;56.80;;;;;;5038181;28;20486;-68
2022/10/01 06:46:46;;;;;;;1.40;1.00;;;19.30;56.80;;;;;;5038802;28;20029;-68
2022/10/01 06:49:12;;;;;;;1.25;0.95;;;19.30;56.80;;;;;;5035975;28;20026;-68
2022/10/01 06:54:22;;;;;;;2.13;1.10;;;19.30;56.80;;;;;;5039079;28;20035;-68
2022/10/01 06:56:48;;;;;;;1.60;1.00;;;19.30;56.80;;;;;;5038946;28;20677;-68
2022/10/01 06:59:13;;;;;;;0.73;0.70;;;19.30;56.80;;;;;;5033779;28;20033;-68
2022/10/01 07:01:39;;;;;;;0.80;0.73;;;19.20;56.80;;;;;;5034578;28;20455;-68
2022/10/01 07:04:04;;;;;;;0.93;0.80;;;19.30;56.80;;;;;;5042162;28;20142;-68
2022/10/01 07:06:31;;;;;;;0.90;0.73;;;19.20;56.80;;;;;;5041864;28;20053;-68
2022/10/01 07:08:57;;;;;;;0.90;0.80;;;19.30;56.90;;;;;;5041192;28;20040;-68
2022/10/01 07:11:24;;;;;;;1.15;0.80;;;19.30;56.90;;;;;;5040293;28;20028;-68
2022/10/01 07:13:50;;;;;;;1.00;0.82;;;19.30;56.90;;;;;;5039465;28;20028;-67
2022/10/01 07:16:15;;;;;;;1.23;0.90;;;19.30;57.00;;;;;;5041120;28;20049;-68
2022/10/01 07:18:41;;;;;;;1.40;1.00;;;19.30;57.00;;;;;;5039421;28;20029;-68
2022/10/01 07:21:06;;;;;;;0.93;0.77;;;19.30;57.00;;;;;;5040660;28;20064;-68
2022/10/01 07:23:32;;;;;;;1.15;0.90;;;19.30;57.00;;;;;;5037330;28;20021;-68
2022/10/01 07:25:58;;;;;;;1.15;0.80;;;19.20;57.00;;;;;;5037865;28;20120;-68
2022/10/01 07:28:25;;;;;;;1.30;0.88;;;19.20;57.00;;;;;;5048534;28;20095;-68
2022/10/01 07:30:58;;;;;;;1.48;1.10;;;19.20;57.00;;;;;;5033389;28;20478;-68
2022/10/01 07:33:23;;;;;;;0.90;0.70;;;19.20;57.00;;;;;;5041076;28;20025;-68
2022/10/01 07:35:49;;;;;;;1.42;0.90;;;19.20;57.00;;;;;;5034961;28;20076;-68
2022/10/01 07:38:15;;;;;;;1.02;0.80;;;19.30;57.10;;;;;;5048207;28;20044;-68
2022/10/01 07:40:41;;;;;;;1.27;0.88;;;19.20;57.50;;;;;;5035170;28;20036;-68
2022/10/01 07:43:08;;;;;;;1.38;0.90;;;19.20;57.10;;;;;;5036766;28;20894;-68
2022/10/01 07:45:34;;;;;;;1.35;0.90;;;19.20;57.10;;;;;;5052709;28;20076;-68
2022/10/01 07:48:01;;;;;;;1.02;0.80;;;19.20;57.10;;;;;;5035080;28;20139;-68
2022/10/01 07:50:31;;;;;;;1.33;0.90;;;19.20;57.10;;;;;;5042549;28;20769;-68
2022/10/01 07:52:58;;;;;;;1.17;0.80;;;19.20;57.10;;;;;;5036736;28;20086;-68
2022/10/01 07:55:25;;;;;;;1.35;0.90;;;19.20;57.10;;;;;;5038191;28;20439;-68
2022/10/01 07:57:55;;;;;;;1.30;0.80;;;19.20;57.20;;;;;;5041867;28;20392;-68
2022/10/01 08:00:24;;;;;;;1.10;0.80;;;19.20;57.20;;;;;;5036999;28;20049;-68
2022/10/01 08:02:52;;;;;;;1.60;0.90;;;19.20;57.20;;;;;;5035683;28;20033;-68
2022/10/01 08:05:20;;;;;;;0.95;0.82;;;19.20;57.70;;;;;;5035842;28;20343;-68
2022/10/01 08:07:47;;;;;;;1.08;0.90;;;19.20;57.30;;;;;;5038401;28;20106;-68
2022/10/01 08:10:14;;;;;;;0.80;0.70;;;19.20;57.30;;;;;;5036099;28;20036;-68
2022/10/01 08:12:43;;;;;;;0.93;0.80;;;19.20;57.40;;;;;;5035786;28;20041;-68
2022/10/01 08:15:11;;;;;;;0.77;0.70;;;19.20;57.40;;;;;;5032221;28;20502;-68
2022/10/01 08:17:37;;;;;;;1.30;0.80;;;19.20;57.30;;;;;;5037936;28;20463;-68
2022/10/01 08:20:04;;;;;;;1.20;0.90;;;19.20;57.30;;;;;;5046042;28;20394;-68
2022/10/01 08:22:30;;;;;;;1.25;0.80;;;19.20;57.40;;;;;;5031865;28;20021;-68
2022/10/01 08:24:55;;;;;;;2.58;1.00;;;19.20;57.40;;;;;;5037198;28;20025;-68
2022/10/01 08:27:24;;;;;;;1.38;0.80;;;19.20;57.50;;;;;;5035862;28;20079;-67
2022/10/01 08:29:49;;;;;;;1.60;0.95;;;19.20;57.60;;;;;;5029883;28;20075;-67
2022/10/01 08:32:15;;;;;;;1.05;0.88;;;19.20;57.60;;;;;;5026507;28;20033;-67
2022/10/01 08:34:41;;;;;;;1.35;0.80;;;19.20;57.60;;;;;;5030966;28;20108;-66
2022/10/01 08:37:06;;;;;;;2.10;0.95;;;19.20;57.80;;;;;;5039335;28;20036;-67
2022/10/01 08:39:32;;;;;;;1.30;0.90;;;19.20;57.70;;;;;;5039359;28;20550;-66
2022/10/01 08:42:24;;;;;;;1.13;0.88;;;19.20;57.70;;;;;;5040779;28;20025;-66
2022/10/01 08:44:51;;;;;;;0.80;0.70;;;19.20;57.80;;;;;;5037374;28;20099;-67
2022/10/01 08:47:37;;;;;;;1.88;0.80;;;19.20;57.70;;;;;;5035557;28;20505;-67
2022/10/01 08:50:17;;;;;;;1.13;0.88;;;19.20;57.80;;;;;;5055061;28;20031;-67
2022/10/01 08:52:58;;;;;;;1.30;0.90;;;19.20;57.90;;;;;;5037873;28;20060;-66
2022/10/01 08:55:27;;;;;;;1.40;0.80;;;19.20;58.00;;;;;;5038718;28;20481;-66
2022/10/01 08:57:59;;;;;;;1.15;0.90;;;19.20;57.90;;;;;;5031441;28;20032;-66
2022/10/01 09:00:27;;;;;;;1.48;0.80;;;19.20;58.00;;;;;;5031065;28;20056;-66
2022/10/01 09:02:57;;;;;;;1.10;0.70;;;19.20;58.00;;;;;;5037850;28;20148;-66
2022/10/01 09:05:38;;;;;;;;;;;19.20;58.00;;;;;;5049829;28;20108;-66
2022/10/01 09:08:21;;;;;;;1.40;0.80;;;19.20;58.20;;;;;;5031270;28;19905;-66
2022/10/01 09:11:00;;;;;;;1.27;0.90;;;19.20;58.10;;;;;;5037509;28;20169;-66
2022/10/01 09:13:46;;;;;;;1.50;0.90;;;19.20;58.10;;;;;;5035343;28;20025;-66
2022/10/01 09:16:44;;;;;;;1.20;0.80;;;19.20;58.20;;;;;;5039314;28;20048;-66
2022/10/01 09:20:01;;;;;;;2.00;1.00;;;19.20;58.30;;;;;;5031205;28;20038;-66
2022/10/01 09:22:38;;;;;;;1.10;0.80;;;19.20;58.30;;;;;;5015350;28;20042;-66
2022/10/01 09:25:22;;;;;;;1.38;1.00;;;19.20;58.30;;;;;;5036411;28;20017;-66
2022/10/01 09:27:49;;;;;;;1.70;0.90;;;19.20;58.30;;;;;;5040583;28;20028;-66
2022/10/01 09:30:20;;;;;;;1.55;1.00;;;19.20;58.20;;;;;;5053750;28;20061;-66
2022/10/01 09:32:54;;;;;;;2.85;1.00;;;19.20;58.30;;;;;;5038928;28;20112;-66
2022/10/01 09:35:43;;;;;;;1.73;0.93;;;19.20;58.40;;;;;;5040457;28;20021;-66
2022/10/01 09:38:17;;;;;;;1.42;0.85;;;19.20;58.20;;;;;;5039174;28;20029;-66
2022/10/01 09:40:56;;;;;;;1.25;0.98;;;19.20;58.10;;;;;;5043211;28;20029;-67
2022/10/01 09:43:27;;;;;;;1.33;0.85;;;19.10;58.30;;;;;;5054383;28;20028;-67
2022/10/01 09:45:52;;;;;;;1.35;0.90;;;19.10;58.10;;;;;;5037663;28;20048;-67
2022/10/01 09:48:36;;;;;;;1.80;0.90;;;19.20;58.60;;;;;;5038844;28;20532;-67
2022/10/01 09:51:19;;;;;;;1.30;0.80;;;19.10;58.40;;;;;;5032257;28;20036;-67
2022/10/01 09:53:57;;;;;;;1.15;0.88;;;19.20;58.40;;;;;;5042972;28;20027;-67
2022/10/01 09:56:33;;;;;;;2.90;0.90;;;19.20;58.20;;;;;;5043276;28;20044;-67
2022/10/01 09:59:05;;;;;;;1.48;0.90;;;19.10;58.50;;;;;;5040901;28;20429;-67
2022/10/01 10:01:50;;;;;;;1.20;0.90;;;19.20;59.20;;;;;;5037344;28;20030;-67
2022/10/01 10:04:22;;;;;;;3.45;0.93;;;19.20;59.90;;;;;;5039292;28;20032;-67
2022/10/01 10:06:49;;;;;;;2.13;0.90;;;19.10;60.20;;;;;;5040576;28;20152;-67
2022/10/01 10:09:21;;;;;;;1.08;0.80;;;19.10;60.20;;;;;;5037527;28;20052;-67
2022/10/01 10:11:48;;;;;;;1.40;0.80;;;19.10;60.40;;;;;;5041414;28;20415;-67
2022/10/01 10:14:23;;;;;;;4.90;1.20;;;19.10;60.50;;;;;;5040976;28;20111;-67
2022/10/01 10:16:50;;;;;;;1.40;0.88;;;19.10;60.80;;;;;;5040170;28;20440;-67
2022/10/01 10:19:26;;;;;;;2.22;0.80;;;19.10;60.90;;;;;;5055481;28;20408;-67
2022/10/01 10:22:07;;;;;;;1.13;0.73;;;19.10;61.30;;;;;;5040375;28;20050;-67
2022/10/01 10:24:34;;;;;;;1.58;0.90;;;19.10;61.20;;;;;;5037272;28;20106;-67
2022/10/01 10:27:03;;;;;;;1.05;0.90;;;19.20;61.80;;;;;;5034611;28;20416;-67
2022/10/01 10:29:34;;;;;;;1.52;1.00;;;19.20;61.50;;;;;;5033839;28;20443;-67
2022/10/01 10:32:27;;;;;;;1.40;0.93;;;19.20;61.10;;;;;;5039762;28;20063;-67
2022/10/01 10:34:56;;;;;;;1.13;0.90;;;19.20;61.10;;;;;;5038660;28;20048;-67
2022/10/01 10:37:28;;;;;;;1.02;0.90;;;19.10;60.50;;;;;;5039417;28;20558;-67
2022/10/01 10:39:55;;;;;;;1.15;0.80;;;19.20;60.40;;;;;;5055266;28;20484;-67
2022/10/01 10:42:24;;;;;;;1.13;0.85;;;19.20;59.60;;;;;;5037105;28;20032;-67
2022/10/01 10:44:52;;;;;;;1.83;0.90;;;19.20;59.80;;;;;;5040536;28;20037;-67
2022/10/01 10:47:20;;;;;;;2.40;1.00;;;19.20;59.50;;;;;;5037040;28;20497;-67
2022/10/01 10:49:49;;;;;;;1.48;0.88;;;19.20;59.50;;;;;;5038561;28;20145;-67
2022/10/01 10:52:31;;;;;;;1.45;0.80;;;19.20;59.00;;;;;;5032365;28;20034;-67
2022/10/01 10:54:58;;;;;;;1.17;0.77;;;19.20;58.80;;;;;;5045030;28;20086;-67
2022/10/01 10:57:33;;;;;;;0.95;0.70;;;19.20;58.70;;;;;;5039448;28;20025;-67
2022/10/01 11:00:11;;;;;;;0.82;0.70;;;19.20;59.40;;;;;;5040871;28;20028;-67
2022/10/01 11:02:39;;;;;;;1.63;0.90;;;19.20;58.80;;;;;;5040302;28;20128;-68
2022/10/01 11:05:18;;;;;;;1.08;0.80;;;19.20;59.00;;;;;;5038359;28;20029;-68
2022/10/01 11:07:45;;;;;;;1.55;0.90;;;19.20;58.70;;;;;;5035814;28;20029;-67
2022/10/01 11:10:27;;;;;;;1.42;0.90;;;19.20;59.00;;;;;;5040414;28;20025;-67
2022/10/01 11:13:02;;;;;;;1.23;0.90;;;19.20;59.70;;;;;;5040877;28;20484;-67
2022/10/01 11:15:58;;;;;;;0.80;0.60;;;19.20;60.20;;;;;;5039208;28;20473;-66
2022/10/01 11:18:40;;;;;;;1.77;0.80;;;19.30;60.50;;;;;;5038560;28;20052;-67
2022/10/01 11:21:40;;;;;;;1.27;0.75;;;19.30;60.50;;;;;;5039719;28;20048;-67
2022/10/01 11:24:54;;;;;;;1.60;0.70;;;19.30;60.50;;;;;;5041690;28;20029;-67
2022/10/01 11:27:37;;;;;;;1.80;0.85;;;19.40;60.40;;;;;;5028440;28;20116;-67
2022/10/01 11:30:06;;;;;;;1.10;0.88;;;19.40;59.90;;;;;;5033982;28;20417;-67
2022/10/01 11:32:44;;;;;;;1.20;0.73;;;19.50;59.70;;;;;;5034604;28;20060;-67
2022/10/01 11:35:36;;;;;;;1.05;0.70;;;19.60;59.70;;;;;;5053344;28;20059;-68
2022/10/01 11:38:20;;;;;;;1.30;0.77;;;19.60;59.50;;;;;;5036106;28;20033;-67
2022/10/01 11:40:53;;;;;;;1.45;0.85;;;19.70;59.30;;;;;;5030588;28;20067;-68
2022/10/01 11:43:27;;;;;;;1.15;0.75;;;19.70;59.10;;;;;;5041210;28;20033;-67
2022/10/01 11:46:01;;;;;;;2.88;0.90;;;19.70;59.00;;;;;;5040986;28;20480;-68
2022/10/01 11:48:33;;;;;;;1.35;0.82;;;19.80;58.80;;;;;;5041483;28;20112;-68
2022/10/01 11:51:07;;;;;;;1.77;1.00;;;19.80;58.80;;;;;;5035776;28;20591;-68
2022/10/01 11:53:57;;;;;;;1.25;0.80;;;19.90;58.80;;;;;;5040322;28;20108;-68
2022/10/01 11:59:23;;;;;;;2.00;1.10;;;20.00;58.40;;;;;;5038875;28;20041;-68
2022/10/01 12:02:18;;;;;;;1.50;1.00;;;20.00;58.30;;;;;;5037604;28;20043;-68
2022/10/01 12:05:01;;;;;;;1.63;1.02;;;20.10;58.10;;;;;;5033291;28;20127;-68
2022/10/01 12:07:50;;;;;;;1.35;0.90;;;20.10;57.90;;;;;;5049254;28;20021;-68
2022/10/01 12:10:16;;;;;;;2.13;0.98;;;20.10;57.80;;;;;;5030751;28;20034;-68
2022/10/01 12:12:44;;;;;;;1.27;0.90;;;20.10;57.60;;;;;;5049161;28;20040;-68
2022/10/01 12:15:28;;;;;;;1.50;1.00;;;20.10;57.50;;;;;;5037767;28;20060;-68
2022/10/01 12:18:10;;;;;;;2.38;0.98;;;20.20;57.50;;;;;;5037681;28;20060;-68
2022/10/01 12:20:47;;;;;;;1.30;0.93;;;20.20;57.20;;;;;;5046759;28;20111;-68
2022/10/01 12:23:17;;;;;;;1.25;0.80;;;20.20;57.10;;;;;;5024964;28;20423;-68
2022/10/01 12:25:58;;;;;;;1.75;0.95;;;20.30;57.50;;;;;;5029069;28;20373;-68
2022/10/01 12:28:38;;;;;;;1.17;0.80;;;20.30;57.10;;;;;;5038618;28;20030;-68
2022/10/01 12:31:32;;;;;;;1.50;0.80;;;20.30;57.20;;;;;;5039947;28;20401;-68
2022/10/01 12:34:25;;;;;;;2.22;1.00;;;20.30;56.90;;;;;;5040439;28;20025;-68
2022/10/01 12:37:18;;;;;;;1.33;0.80;;;20.40;57.20;;;;;;5038515;28;20029;-68
2022/10/01 12:40:20;;;;;;;1.20;0.80;;;20.40;57.00;;;;;;5038596;28;20025;-69
2022/10/01 12:43:16;;;;;;;1.92;1.00;;;20.40;56.90;;;;;;5034150;28;20021;-68
2022/10/01 12:45:45;;;;;;;0.98;0.80;;;20.50;56.80;;;;;;5037120;28;20384;-68
2022/10/01 12:48:35;;;;;;;1.13;0.80;;;20.50;56.90;;;;;;5033508;28;20045;-68
2022/10/01 12:51:15;;;;;;;1.58;1.00;;;20.50;56.90;;;;;;5034263;28;20021;-68
2022/10/01 12:53:44;;;;;;;;;;;20.50;56.80;;;;;;5036876;28;20080;-68
2022/10/01 12:56:21;;;;;;;1.45;0.90;;;20.50;56.70;;;;;;5034824;28;20002;-68
2022/10/01 12:59:08;;;;;;;1.77;1.00;;;20.60;56.60;;;;;;5042698;28;20040;-68
2022/10/01 13:01:43;;;;;;;1.30;0.80;;;20.60;56.70;;;;;;5029239;28;20033;-68
2022/10/01 13:04:27;;;;;;;1.30;0.90;;;20.60;56.60;;;;;;5042358;28;20109;-68
2022/10/01 13:06:59;;;;;;;1.40;0.90;;;20.60;56.50;;;;;;5040209;28;20032;-69
2022/10/01 13:09:37;;;;;;;1.98;0.95;;;20.60;56.40;;;;;;5036761;28;20033;-68
2022/10/01 13:12:24;;;;;;;2.47;0.88;;;20.60;56.30;;;;;;5040465;28;20029;-68
2022/10/01 13:14:52;;;;;;;2.35;0.95;;;20.70;56.40;;;;;;5045263;28;20055;-69
2022/10/01 13:17:41;;;;;;;1.50;0.90;;;20.70;56.40;;;;;;5042080;28;20451;-69